TimeCST,TemperatureF,Dew PointF,Humidity,Sea Level PressureIn,VisibilityMPH,Wind Direction,Wind SpeedMPH,Gust SpeedMPH,PrecipitationIn,Events,Conditions,WindDirDegrees,DateUTC
12:53 AM,41.0,33.1,73,29.91,10.0,WNW,3.5,-,N/A,,Clear,300,2013-02-27 06:53:00
1:53 AM,39.9,33.1,77,29.92,10.0,WSW,3.5,-,N/A,,Clear,250,2013-02-27 07:53:00
2:53 AM,37.0,33.1,86,29.92,10.0,Calm,Calm,-,N/A,,Clear,0,2013-02-27 08:53:00
3:53 AM,34.0,30.9,89,29.91,10.0,Calm,Calm,-,N/A,,Clear,0,2013-02-27 09:53:00
4:53 AM,33.1,30.9,92,29.92,9.0,South,3.5,-,N/A,,Clear,180,2013-02-27 10:53:00
5:53 AM,32.0,30.9,96,29.94,9.0,Calm,Calm,-,N/A,,Clear,0,2013-02-27 11:53:00
6:53 AM,30.9,30.0,96,29.95,7.0,Calm,Calm,-,N/A,,Clear,0,2013-02-27 12:53:00
7:53 AM,37.0,35.1,93,29.96,9.0,Calm,Calm,-,N/A,,Clear,0,2013-02-27 13:53:00
8:53 AM,42.8,35.6,76,29.99,10.0,West,6.9,-,N/A,,Clear,280,2013-02-27 14:53:00
9:53 AM,46.0,34.0,63,30.00,10.0,West,9.2,-,N/A,,Clear,260,2013-02-27 15:53:00
10:53 AM,48.0,36.0,63,30.01,10.0,West,9.2,-,N/A,,Clear,270,2013-02-27 16:53:00
11:53 AM,48.9,36.0,61,30.01,10.0,West,10.4,16.1,N/A,,Clear,270,2013-02-27 17:53:00
12:53 PM,51.1,37.0,59,29.97,10.0,WSW,13.8,17.3,N/A,,Clear,240,2013-02-27 18:53:00
1:53 PM,53.1,37.9,57,29.96,10.0,WSW,9.2,17.3,N/A,,Clear,250,2013-02-27 19:53:00
2:53 PM,54.0,37.9,55,29.96,10.0,West,10.4,19.6,N/A,,Clear,260,2013-02-27 20:53:00
3:53 PM,52.0,37.9,59,29.96,10.0,West,8.1,-,N/A,,Mostly Cloudy,280,2013-02-27 21:53:00
4:53 PM,53.1,37.9,57,29.97,10.0,WNW,6.9,-,N/A,,Overcast,300,2013-02-27 22:53:00
5:53 PM,50.0,37.9,63,29.98,10.0,NNW,3.5,-,N/A,,Mostly Cloudy,330,2013-02-27 23:53:00
6:53 PM,48.9,37.9,66,29.99,10.0,Calm,Calm,-,N/A,,Clear,0,2013-02-28 00:53:00
7:53 PM,46.0,37.0,71,30.01,10.0,North,4.6,-,N/A,,Clear,350,2013-02-28 01:53:00
8:53 PM,44.1,37.0,76,30.02,10.0,NNW,5.8,-,N/A,,Clear,340,2013-02-28 02:53:00
9:53 PM,44.1,36.0,73,30.04,10.0,NNW,4.6,-,N/A,,Clear,330,2013-02-28 03:53:00
10:53 PM,43.0,34.0,71,30.03,10.0,NW,3.5,-,N/A,,Clear,310,2013-02-28 04:53:00
11:53 PM,42.1,33.1,70,30.03,10.0,Calm,Calm,-,N/A,,Clear,0,2013-02-28 05:53:00